Página principal
METAR-TAF:

METAR-TAF

Aeroportos :

Aeroporto Internacional de Mehrabad

Teerã, Irão

latitude: 35-41N, longitude: 051-21E, altura: 1204 m

Observação actual do tempo

O boletim foi feito há 13 minutos, às 18:00 UTC
Vento 4 kt de noroeste
Temperatura 7°C
Humidade 36%
Pressão 1019 hPa
Visibilidade 10 km ou mais
sem nuvens abaixo de 1500 metros e sem cumulonimbus

METAR: OIII 221800Z 31004KT CAVOK 07/M07 Q1019 A3009 NOSIG

Hora: 21:43 (18:13 UTC)

Previsão

O boletim foi feito há 7 horas e 13 minutos, às 11:00 UTC
Previsão válida de 22 às 12 UTC a 23 às 18 UTC
Vento 8 kt de noroeste
Visibilidade: 8000 m
Poucas nuvensa uma altura de 3500 ft

TAF: OIII 221100Z 2212/2318 32008KT 8000 FEW035

Observações e previsões do tempo de mais de 4000 aeroportos (mensagens METAR e TAF).

As estações disponíveis são os pontos amarelos e vermelhos sobre o mapa.

Mova o rato sobre o mapa para ver o nome da estação.

Depois clique no ponto para visualizar as observações e previsões meteorológicas.

Para alterar o mapa : clique nos botões verdes com uma cruz preta para aumentar o zoom; no botão verde com uma pitada de zoom; ou nas setas verdes para mapas adjacentes.


METAR-TAF: